Main page
METAR-TAF:

METAR-TAF

Airports :

Linton-on-Ouse, England

RAF Linton-on-Ouse

latitude: 54-03N, longitude: 001-15W, elevation: 16 m

Current weather observation

The report was made 34 minutes ago, at 01:50 UTC
Wind 2 kt from the Northwest
Temperature -3°C
Humidity 100%
Pressure 1022 hPa
Visibility 10 km or more

METAR: EGXU 170150Z AUTO 31002KT 9999 // BKN210/// M03/M03 Q1022

Time: 02:24 (02:24 UTC)

Forecast

The report was made 15 hours and 32 minutes ago, at 10:52 UTC
Forecast valid from 16 at 12 UTC to 16 at 18 UTC
Wind 8 kt from the Northwest
Visibility 10 km or more
no clouds below 1500 m and no cumulonimbus

TAF: EGXU 161052Z 1612/1618 31008KT CAVOK

Weather observations and forecasts of more than 4000 airports (METAR and TAF reports).

The available stations are represented by yellow and red dots on the map.

Hover mouse over dot to see the name of the station.

Then click to see weather observations and forecasts.

To change the map : click on the green buttons with a black cross to zoom in, on the green button with a dash to zoom out, or on the green arrows for adjacent maps.


METAR-TAF: